createdAt,value
2022-12-23T00:01:03.281Z,42.87
2022-12-23T00:02:06.491Z,41.17
2022-12-23T00:03:09.564Z,44.15
2022-12-23T00:04:12.517Z,41.78
2022-12-23T00:05:15.435Z,42.15
2022-12-23T00:06:20.290Z,40.95
2022-12-23T00:07:23.456Z,44.03
2022-12-23T00:08:28.151Z,42.28
2022-12-23T00:09:31.874Z,42.55
2022-12-23T00:10:37.959Z,44.67
2022-12-23T00:12:00.672Z,40.70
2022-12-23T00:13:22.651Z,39.80
2022-12-23T00:14:44.303Z,40.95
2022-12-23T00:15:47.099Z,38.85
2022-12-23T00:16:51.265Z,41.75
2022-12-23T00:17:54.290Z,40.08
2022-12-23T00:18:58.701Z,39.03
2022-12-23T00:20:01.970Z,41.08
2022-12-23T00:21:09.166Z,40.72
2022-12-23T00:22:12.219Z,40.33
2022-12-23T00:23:16.570Z,40.83
2022-12-23T00:24:19.698Z,51.58
2022-12-23T00:25:40.381Z,73.78
2022-12-23T00:26:43.506Z,102.18
2022-12-23T00:28:01.493Z,70.35
2022-12-23T00:29:04.420Z,46.28
2022-12-23T00:30:09.764Z,53.05
2022-12-23T00:31:15.156Z,42.17
2022-12-23T00:32:17.967Z,45.97
2022-12-23T00:33:23.387Z,74.15
2022-12-23T00:34:26.295Z,44.83
2022-12-23T00:35:32.542Z,40.22
2022-12-23T00:36:37.553Z,43.28
2022-12-23T00:37:40.649Z,40.55
2022-12-23T00:39:04.784Z,41.85
2022-12-23T00:40:31.064Z,54.40
2022-12-23T00:41:52.781Z,52.35
2022-12-23T00:42:55.794Z,42.53
2022-12-23T00:43:58.728Z,50.03
2022-12-23T00:45:15.994Z,42.92
2022-12-23T00:46:19.133Z,36.90
2022-12-23T00:47:41.331Z,37.00
2022-12-23T00:49:07.611Z,38.25
2022-12-23T00:50:10.987Z,38.40
2022-12-23T00:51:13.945Z,38.47
2022-12-23T00:52:16.818Z,49.13
2022-12-23T00:53:20.743Z,51.75
2022-12-23T00:54:23.567Z,69.85
2022-12-23T00:55:26.820Z,50.83
2022-12-23T00:56:29.607Z,75.22
2022-12-23T00:57:32.397Z,54.30
2022-12-23T00:58:37.989Z,53.10
2022-12-23T00:59:40.714Z,41.50
2022-12-23T01:01:02.997Z,38.90
2022-12-23T01:02:24.952Z,36.28
2022-12-23T01:03:49.023Z,37.10
2022-12-23T01:05:10.868Z,36.53
2022-12-23T01:06:14.354Z,36.45
2022-12-23T01:07:17.066Z,37.92
2022-12-23T01:08:19.932Z,37.08
2022-12-23T01:09:22.719Z,38.23
2022-12-23T01:10:26.428Z,36.33
2022-12-23T01:11:29.333Z,37.28
2022-12-23T01:12:32.352Z,37.88
2022-12-23T01:13:36.036Z,38.95
2022-12-23T01:14:39.194Z,36.55
2022-12-23T01:15:42.294Z,38.65
2022-12-23T01:16:45.468Z,36.88
2022-12-23T01:17:48.374Z,39.72
2022-12-23T01:18:52.031Z,40.45
2022-12-23T01:19:54.821Z,37.03
2022-12-23T01:21:03.107Z,37.67
2022-12-23T01:22:06.004Z,37.50
2022-12-23T01:23:08.873Z,37.97
2022-12-23T01:24:12.023Z,45.40
2022-12-23T01:25:14.947Z,37.78
2022-12-23T01:26:18.053Z,37.00
2022-12-23T01:27:20.882Z,36.42
2022-12-23T01:28:29.960Z,36.83
2022-12-23T01:29:32.890Z,38.28
2022-12-23T01:30:37.135Z,37.43
2022-12-23T01:31:40.370Z,37.43
2022-12-23T01:32:43.191Z,36.20
2022-12-23T01:33:46.515Z,37.00
2022-12-23T01:34:49.394Z,35.97
2022-12-23T01:35:52.304Z,37.92
2022-12-23T01:36:55.411Z,36.08
2022-12-23T01:37:58.500Z,34.85
2022-12-23T01:39:01.344Z,35.05
2022-12-23T01:40:04.533Z,34.80
2022-12-23T01:41:07.809Z,35.47
2022-12-23T01:42:33.025Z,36.50
2022-12-23T01:43:49.306Z,34.95
2022-12-23T01:45:01.949Z,35.28
2022-12-23T01:46:06.595Z,35.80
2022-12-23T01:47:13.284Z,35.28
2022-12-23T01:48:27.394Z,36.05
2022-12-23T01:49:30.530Z,37.10
2022-12-23T01:51:03.176Z,39.20
2022-12-23T01:52:06.108Z,48.20
2022-12-23T01:53:14.832Z,38.17
2022-12-23T01:54:17.945Z,37.38
2022-12-23T01:55:25.538Z,37.05
2022-12-23T01:56:34.621Z,34.67
2022-12-23T01:57:40.952Z,35.83
2022-12-23T01:58:59.394Z,35.10
2022-12-23T02:00:33.908Z,35.58
2022-12-23T02:01:55.962Z,35.83
2022-12-23T02:03:17.709Z,34.95
2022-12-23T02:04:23.645Z,35.15
2022-12-23T02:05:26.813Z,35.83
2022-12-23T02:06:52.900Z,35.35
2022-12-23T02:08:14.915Z,32.65
2022-12-23T02:09:32.951Z,34.17
2022-12-23T02:10:57.380Z,36.20
2022-12-23T02:12:27.626Z,33.38
2022-12-23T02:14:20.812Z,34.25
2022-12-23T02:15:52.966Z,35.70
2022-12-23T02:17:09.405Z,34.50
2022-12-23T02:18:33.948Z,33.80
2022-12-23T02:19:52.201Z,34.40
2022-12-23T02:21:16.198Z,35.35
2022-12-23T02:22:35.269Z,34.75
2022-12-23T02:23:44.066Z,35.22
2022-12-23T02:25:02.201Z,36.70
2022-12-23T02:26:29.558Z,35.88
2022-12-23T02:27:40.416Z,38.53
2022-12-23T02:28:49.871Z,39.33
2022-12-23T02:29:52.956Z,42.10
2022-12-23T02:31:10.649Z,42.10
2022-12-23T02:32:59.287Z,44.40
2022-12-23T02:34:19.097Z,50.17
2022-12-23T02:35:46.715Z,48.08
2022-12-23T02:36:59.890Z,48.38
2022-12-23T02:38:09.682Z,47.95
2022-12-23T02:39:40.258Z,47.58
2022-12-23T02:40:43.621Z,43.03
2022-12-23T02:41:57.043Z,45.63
2022-12-23T02:43:25.611Z,41.80
2022-12-23T02:44:45.154Z,43.00
2022-12-23T02:46:01.870Z,43.37
2022-12-23T02:47:11.572Z,42.95
2022-12-23T02:48:32.077Z,43.63
2022-12-23T02:49:40.511Z,45.75
2022-12-23T02:50:46.556Z,44.42
2022-12-23T02:51:54.306Z,44.40
2022-12-23T02:53:01.793Z,41.33
2022-12-23T02:54:08.478Z,41.28
2022-12-23T02:55:19.432Z,41.90
2022-12-23T02:56:26.977Z,41.85
2022-12-23T02:57:35.863Z,39.17
2022-12-23T02:58:46.460Z,38.78
2022-12-23T02:59:52.471Z,38.88
2022-12-23T03:00:57.401Z,38.92
2022-12-23T03:02:01.614Z,39.58
2022-12-23T03:03:05.232Z,39.72
2022-12-23T03:04:09.003Z,39.63
2022-12-23T03:10:56.744Z,33.97
2022-12-23T03:12:09.999Z,35.58
2022-12-23T03:13:22.825Z,37.13
2022-12-23T03:14:50.330Z,39.42
2022-12-23T03:16:21.161Z,42.55
2022-12-23T03:17:47.610Z,54.85
2022-12-23T03:19:13.852Z,42.35
2022-12-23T03:20:44.001Z,39.50
2022-12-23T03:21:50.691Z,38.95
2022-12-23T03:23:03.881Z,38.97
2022-12-23T03:24:06.664Z,44.25
2022-12-23T03:25:17.878Z,46.90
2022-12-23T03:27:08.460Z,43.05
2022-12-23T03:28:21.526Z,48.28
2022-12-23T03:29:37.268Z,38.90
2022-12-23T03:30:44.618Z,37.15
2022-12-23T03:31:48.194Z,37.70
2022-12-23T03:32:57.322Z,37.95
2022-12-23T03:34:08.553Z,41.88
2022-12-23T03:35:16.757Z,39.30
2022-12-23T03:36:24.882Z,37.58
2022-12-23T03:37:30.433Z,37.58
2022-12-23T03:38:36.525Z,37.28
2022-12-23T03:39:48.325Z,36.65
2022-12-23T03:40:56.788Z,43.28
2022-12-23T03:42:07.835Z,43.67
2022-12-23T03:43:52.964Z,47.33
2022-12-23T03:45:36.515Z,34.83
2022-12-23T03:46:38.402Z,32.97
2022-12-23T03:48:15.407Z,34.47
2022-12-23T03:49:41.881Z,34.30
2022-12-23T03:50:48.724Z,33.90
2022-12-23T03:52:01.147Z,34.38
2022-12-23T03:53:03.899Z,36.38
2022-12-23T03:54:19.099Z,35.08
2022-12-23T03:55:27.240Z,36.15
2022-12-23T03:56:44.565Z,42.05
2022-12-23T03:57:58.483Z,36.83
2022-12-23T03:59:19.976Z,38.45
2022-12-23T04:00:22.969Z,32.73
2022-12-23T04:01:39.494Z,34.78
2022-12-23T04:02:56.052Z,34.25
2022-12-23T04:04:07.101Z,34.20
2022-12-23T04:05:25.138Z,35.15
2022-12-23T04:06:35.834Z,42.17
2022-12-23T04:07:43.543Z,35.58
2022-12-23T04:08:49.111Z,38.55
2022-12-23T04:09:53.724Z,35.50
2022-12-23T04:10:57.807Z,35.00
2022-12-23T04:12:01.130Z,37.83
2022-12-23T04:13:04.038Z,35.38
2022-12-23T04:14:07.914Z,35.67
2022-12-23T04:15:13.232Z,36.65
2022-12-23T04:16:16.975Z,36.60
2022-12-23T04:17:21.835Z,36.22
2022-12-23T04:18:25.352Z,36.42
2022-12-23T04:19:28.298Z,36.42
2022-12-23T04:20:31.089Z,36.78
2022-12-23T04:21:33.834Z,44.78
2022-12-23T04:22:37.110Z,38.60
2022-12-23T04:23:40.576Z,38.47
2022-12-23T04:24:44.247Z,39.08
2022-12-23T04:25:47.513Z,38.88
2022-12-23T04:26:50.848Z,38.15
2022-12-23T04:27:54.243Z,39.33
2022-12-23T04:28:57.023Z,39.70
2022-12-23T04:30:00.231Z,39.50
2022-12-23T04:31:03.042Z,40.15
2022-12-23T04:32:06.662Z,39.63
2022-12-23T04:33:12.977Z,38.43
2022-12-23T04:34:16.550Z,44.57
2022-12-23T04:35:20.004Z,43.13
2022-12-23T04:36:23.645Z,41.92
2022-12-23T04:37:27.201Z,41.67
2022-12-23T04:38:33.232Z,42.08
2022-12-23T04:39:36.643Z,39.60
2022-12-23T04:40:40.055Z,39.42
2022-12-23T04:41:43.051Z,40.90
2022-12-23T04:42:46.391Z,38.58
2022-12-23T04:43:53.020Z,37.30
2022-12-23T04:44:56.715Z,39.97
2022-12-23T04:45:59.442Z,41.42
2022-12-23T04:47:02.616Z,45.95
2022-12-23T04:48:06.164Z,48.03
2022-12-23T04:49:10.153Z,40.72
2022-12-23T04:50:17.019Z,41.05
2022-12-23T04:51:19.826Z,43.60
2022-12-23T04:52:23.560Z,41.70
2022-12-23T04:53:26.554Z,42.13
2022-12-23T04:54:29.612Z,42.30
2022-12-23T04:55:32.437Z,40.97
2022-12-23T04:56:35.292Z,41.35
2022-12-23T04:57:38.775Z,39.53
2022-12-23T04:58:42.923Z,40.03
2022-12-23T04:59:46.554Z,40.33
2022-12-23T05:00:49.710Z,44.78
2022-12-23T05:01:53.126Z,42.58
2022-12-23T05:02:56.406Z,42.70
2022-12-23T05:03:59.283Z,42.15
2022-12-23T05:05:02.466Z,41.03
2022-12-23T05:06:06.432Z,40.50
2022-12-23T05:07:09.633Z,39.83
2022-12-23T05:08:12.401Z,39.85
2022-12-23T05:09:15.341Z,39.15
2022-12-23T05:10:18.535Z,37.63
2022-12-23T05:11:21.279Z,37.17
2022-12-23T05:12:23.985Z,36.85
2022-12-23T05:13:28.339Z,39.05
2022-12-23T05:14:31.095Z,39.28
2022-12-23T05:15:34.156Z,38.83
2022-12-23T05:16:37.189Z,40.75
2022-12-23T05:17:39.998Z,43.97
2022-12-23T05:18:44.181Z,47.17
2022-12-23T05:19:46.905Z,43.75
2022-12-23T05:20:50.194Z,43.35
2022-12-23T05:21:53.008Z,41.95
2022-12-23T05:22:55.771Z,42.30
2022-12-23T05:23:58.731Z,42.80
2022-12-23T05:25:01.557Z,44.03
2022-12-23T05:26:04.858Z,47.37
2022-12-23T05:27:07.694Z,48.75
2022-12-23T05:28:11.123Z,49.42
2022-12-23T05:29:15.829Z,46.78
2022-12-23T05:30:18.684Z,46.70
2022-12-23T05:31:22.253Z,47.08
2022-12-23T05:32:25.201Z,55.75
2022-12-23T05:33:28.345Z,58.60
2022-12-23T05:34:31.125Z,55.47
2022-12-23T05:35:33.839Z,61.47
2022-12-23T05:36:36.933Z,67.20
2022-12-23T05:37:39.706Z,71.22
2022-12-23T05:38:42.450Z,72.90
2022-12-23T05:39:45.263Z,48.63
2022-12-23T05:40:48.807Z,40.03
2022-12-23T05:41:51.883Z,37.05
2022-12-23T05:42:54.570Z,37.35
2022-12-23T05:43:57.303Z,40.47
2022-12-23T05:44:59.997Z,43.55
2022-12-23T05:46:02.885Z,52.33
2022-12-23T05:47:06.132Z,49.27
2022-12-23T05:48:10.274Z,48.30
2022-12-23T05:49:13.690Z,49.35
2022-12-23T05:50:16.527Z,47.13
2022-12-23T05:51:19.415Z,42.15
2022-12-23T05:52:22.454Z,40.72
2022-12-23T05:53:25.809Z,42.08
2022-12-23T05:54:28.538Z,41.00
2022-12-23T05:55:31.281Z,41.03
2022-12-23T05:56:34.089Z,80.43
2022-12-23T05:57:37.406Z,60.30
2022-12-23T05:58:41.087Z,58.10
2022-12-23T05:59:44.191Z,69.75
2022-12-23T06:00:47.077Z,75.95
2022-12-23T06:01:50.329Z,55.12
2022-12-23T06:02:54.081Z,64.25
2022-12-23T06:03:57.372Z,78.15
2022-12-23T06:05:00.497Z,66.18
2022-12-23T06:06:03.297Z,55.15
2022-12-23T06:07:07.675Z,63.40
2022-12-23T06:08:10.536Z,72.63
2022-12-23T06:09:13.410Z,66.07
2022-12-23T06:10:16.743Z,66.45
2022-12-23T06:11:19.524Z,57.78
2022-12-23T06:12:22.564Z,51.75
2022-12-23T06:13:25.799Z,48.87
2022-12-23T06:14:29.524Z,57.38
2022-12-23T06:15:32.447Z,66.28
2022-12-23T06:16:35.214Z,58.15
2022-12-23T06:17:39.044Z,60.17
2022-12-23T06:18:42.565Z,67.40
2022-12-23T06:19:47.416Z,74.50
2022-12-23T06:20:50.160Z,52.38
2022-12-23T06:21:52.941Z,52.03
2022-12-23T06:22:56.067Z,60.75
2022-12-23T06:23:58.825Z,64.25
2022-12-23T06:25:01.611Z,64.82
2022-12-23T06:26:04.749Z,69.93
2022-12-23T06:27:07.907Z,85.62
2022-12-23T06:28:14.368Z,56.50
2022-12-23T06:29:17.194Z,44.70
2022-12-23T06:30:20.369Z,46.03
2022-12-23T06:31:23.325Z,47.40
2022-12-23T06:32:26.185Z,52.30
2022-12-23T06:33:29.258Z,69.55
2022-12-23T06:34:33.720Z,60.65
2022-12-23T06:35:36.401Z,51.88
2022-12-23T06:36:39.254Z,51.80
2022-12-23T06:37:42.506Z,54.45
2022-12-23T06:38:48.274Z,50.08
2022-12-23T06:39:51.107Z,46.67
2022-12-23T06:40:53.881Z,50.50
2022-12-23T06:41:57.016Z,52.03
2022-12-23T06:42:59.745Z,51.83
2022-12-23T06:44:02.849Z,49.40
2022-12-23T06:45:06.058Z,50.28
2022-12-23T06:46:08.893Z,47.40
2022-12-23T06:47:11.779Z,45.28
2022-12-23T06:48:15.122Z,44.88
2022-12-23T06:49:18.204Z,45.50
2022-12-23T06:50:21.170Z,46.67
2022-12-23T06:51:24.953Z,45.30
2022-12-23T06:52:27.838Z,51.40
2022-12-23T06:53:30.591Z,52.95
2022-12-23T06:54:33.777Z,62.53
2022-12-23T06:55:36.573Z,64.68
2022-12-23T06:56:40.142Z,99.50
2022-12-23T06:57:43.054Z,86.20
2022-12-23T06:58:46.876Z,77.18
2022-12-23T06:59:49.900Z,71.07
2022-12-23T07:00:52.752Z,59.53
2022-12-23T07:01:55.753Z,60.87
2022-12-23T07:02:58.730Z,57.75
2022-12-23T07:04:02.129Z,59.60
2022-12-23T07:05:06.328Z,62.45
2022-12-23T07:06:09.207Z,62.25
2022-12-23T07:07:12.189Z,60.72
2022-12-23T07:08:14.948Z,58.97
2022-12-23T07:09:17.837Z,55.55
2022-12-23T07:10:20.874Z,61.92
2022-12-23T07:11:23.626Z,59.67
2022-12-23T07:12:26.507Z,60.72
2022-12-23T07:13:29.879Z,57.47
2022-12-23T07:14:32.697Z,64.00
2022-12-23T07:15:37.087Z,62.22
2022-12-23T07:16:39.950Z,59.33
2022-12-23T07:17:43.983Z,58.30
2022-12-23T07:18:47.252Z,59.25
2022-12-23T07:19:49.997Z,59.05
2022-12-23T07:20:53.171Z,58.55
2022-12-23T07:21:55.985Z,55.90
2022-12-23T07:22:58.824Z,53.83
2022-12-23T07:24:01.595Z,56.22
2022-12-23T07:25:04.616Z,54.88
2022-12-23T07:26:07.736Z,64.40
2022-12-23T07:27:10.434Z,68.95
2022-12-23T07:28:13.203Z,68.80
2022-12-23T07:29:16.015Z,67.68
2022-12-23T07:30:18.841Z,58.00
2022-12-23T07:31:22.085Z,55.15
2022-12-23T07:32:25.157Z,54.97
2022-12-23T07:33:27.885Z,64.35
2022-12-23T07:34:30.676Z,68.47
2022-12-23T07:35:33.919Z,69.10
2022-12-23T07:36:37.273Z,66.57
2022-12-23T07:37:40.044Z,71.03
2022-12-23T07:38:42.841Z,70.68
2022-12-23T07:39:45.905Z,68.35
2022-12-23T07:40:49.435Z,74.95
2022-12-23T07:42:03.831Z,69.32
2022-12-23T07:43:15.587Z,60.00
2022-12-23T07:44:18.285Z,66.32
2022-12-23T07:45:21.036Z,60.65
2022-12-23T07:46:24.045Z,58.15
2022-12-23T07:47:27.381Z,55.35
2022-12-23T07:48:30.173Z,55.42
2022-12-23T07:49:44.123Z,55.03
2022-12-23T07:51:04.938Z,50.33
2022-12-23T07:52:07.731Z,50.70
2022-12-23T07:53:12.412Z,47.95
2022-12-23T07:54:15.449Z,55.57
2022-12-23T07:55:18.533Z,53.07
2022-12-23T07:56:21.334Z,52.20
2022-12-23T07:57:24.532Z,48.75
2022-12-23T07:58:28.064Z,47.03
2022-12-23T07:59:31.309Z,49.75
2022-12-23T08:00:34.298Z,48.45
2022-12-23T08:01:37.641Z,49.78
2022-12-23T08:02:40.898Z,49.60
2022-12-23T08:03:43.946Z,51.17
2022-12-23T08:04:46.855Z,49.87
2022-12-23T08:05:59.483Z,53.20
2022-12-23T08:07:02.544Z,55.25
2022-12-23T08:08:05.344Z,55.35
2022-12-23T08:09:09.777Z,55.08
2022-12-23T08:10:13.169Z,56.78
2022-12-23T08:11:16.451Z,54.60
2022-12-23T08:12:19.495Z,53.00
2022-12-23T08:13:22.749Z,52.62
2022-12-23T08:14:25.487Z,51.10
2022-12-23T08:15:28.247Z,52.97
2022-12-23T08:16:31.377Z,55.95
2022-12-23T08:17:35.425Z,53.00
2022-12-23T08:18:40.923Z,52.95
2022-12-23T08:19:43.704Z,56.37
2022-12-23T08:21:00.352Z,54.13
2022-12-23T08:22:03.837Z,61.53
2022-12-23T08:23:06.847Z,66.97
2022-12-23T08:24:10.012Z,59.00
2022-12-23T08:25:12.787Z,58.17
2022-12-23T08:26:24.467Z,58.77
2022-12-23T08:27:27.471Z,67.95
2022-12-23T08:28:32.320Z,55.88
2022-12-23T08:29:36.631Z,56.55
2022-12-23T08:30:39.497Z,68.50
2022-12-23T08:31:42.330Z,69.28
2022-12-23T08:32:45.230Z,57.75
2022-12-23T08:33:51.992Z,64.03
2022-12-23T08:34:57.485Z,60.08
2022-12-23T08:36:00.259Z,59.50
2022-12-23T08:37:03.106Z,61.07
2022-12-23T08:38:05.859Z,55.60
2022-12-23T08:39:11.021Z,56.60
2022-12-23T08:40:13.800Z,61.78
2022-12-23T08:41:21.993Z,114.22
2022-12-23T08:42:25.463Z,77.00
2022-12-23T08:43:33.775Z,64.28
2022-12-23T08:44:38.953Z,61.20
2022-12-23T08:45:41.678Z,61.72
2022-12-23T08:46:44.932Z,90.75
2022-12-23T08:47:47.795Z,82.93
2022-12-23T08:48:51.077Z,79.37
2022-12-23T08:49:54.671Z,67.65
2022-12-23T08:50:57.418Z,64.22
2022-12-23T08:52:00.255Z,69.50
2022-12-23T08:53:03.030Z,71.05
2022-12-23T08:54:06.587Z,60.92
2022-12-23T08:55:09.682Z,61.63
2022-12-23T08:56:18.313Z,60.45
2022-12-23T08:57:21.072Z,60.35
2022-12-23T08:58:24.012Z,61.07
2022-12-23T08:59:26.749Z,71.62
2022-12-23T09:00:29.995Z,68.07
2022-12-23T09:01:34.329Z,65.87
2022-12-23T09:02:37.308Z,63.00
2022-12-23T09:03:41.331Z,62.00
2022-12-23T09:04:44.523Z,345.63
2022-12-23T09:05:47.559Z,72.18
2022-12-23T09:06:50.413Z,69.12
2022-12-23T09:07:53.249Z,68.22
2022-12-23T09:08:56.526Z,70.50
2022-12-23T09:09:59.371Z,69.10
2022-12-23T09:11:04.117Z,69.80
2022-12-23T09:12:07.044Z,64.85
2022-12-23T09:13:14.938Z,66.78
2022-12-23T09:14:20.769Z,71.05
2022-12-23T09:15:23.511Z,66.75
2022-12-23T09:16:28.635Z,61.37
2022-12-23T09:17:31.523Z,62.55
2022-12-23T09:18:35.616Z,283.60
2022-12-23T09:19:38.460Z,296.20
2022-12-23T09:20:41.198Z,203.17
2022-12-23T09:21:44.393Z,127.75
2022-12-23T09:22:47.251Z,102.03
2022-12-23T09:23:51.591Z,191.57
2022-12-23T09:24:58.664Z,120.57
2022-12-23T09:26:07.633Z,138.60
2022-12-23T09:27:10.897Z,115.57
2022-12-23T09:28:16.994Z,177.95
2022-12-23T09:29:19.897Z,312.55
2022-12-23T09:30:22.677Z,196.20
2022-12-23T09:31:32.306Z,73.47
2022-12-23T09:32:37.422Z,100.30
2022-12-23T09:33:40.422Z,64.80
2022-12-23T09:34:43.571Z,62.75
2022-12-23T09:35:46.537Z,61.10
2022-12-23T09:36:55.139Z,58.83
2022-12-23T09:37:58.627Z,89.13
2022-12-23T09:39:01.440Z,122.80
2022-12-23T09:40:05.079Z,157.23
2022-12-23T09:41:35.130Z,92.40
2022-12-23T09:42:44.400Z,56.13
2022-12-23T09:44:18.051Z,56.35
2022-12-23T09:45:56.114Z,82.05
2022-12-23T09:47:03.279Z,177.05
2022-12-23T09:48:13.757Z,75.47
2022-12-23T09:49:18.806Z,75.28
2022-12-23T09:50:29.390Z,75.28
2022-12-23T09:51:33.492Z,172.87
2022-12-23T09:52:52.847Z,94.57
2022-12-23T09:54:22.314Z,216.33
2022-12-23T09:55:37.475Z,56.25
2022-12-23T09:56:48.691Z,181.50
2022-12-23T09:58:08.887Z,208.87
2022-12-23T09:59:22.735Z,131.07
2022-12-23T10:00:29.703Z,152.18
2022-12-23T10:01:40.118Z,98.60
2022-12-23T10:03:22.583Z,68.70
2022-12-23T10:04:32.824Z,83.90
2022-12-23T10:06:14.404Z,67.62
2022-12-23T10:07:24.450Z,83.30
2022-12-23T10:08:45.050Z,125.60
2022-12-23T10:09:57.380Z,99.28
2022-12-23T10:11:14.647Z,133.60
2022-12-23T10:12:39.407Z,210.48
2022-12-23T10:14:00.304Z,94.87
2022-12-23T10:15:18.402Z,72.75
2022-12-23T10:16:26.509Z,89.20
2022-12-23T10:17:36.848Z,85.72
2022-12-23T10:19:03.997Z,102.87
2022-12-23T10:20:14.655Z,67.57
2022-12-23T10:21:47.152Z,103.95
2022-12-23T10:22:51.680Z,134.15
2022-12-23T10:23:55.097Z,226.82
2022-12-23T10:25:01.118Z,79.70
2022-12-23T10:26:11.950Z,67.15
2022-12-23T10:27:29.281Z,56.50
2022-12-23T10:28:34.111Z,106.12
2022-12-23T10:29:37.750Z,81.95
2022-12-23T10:32:11.847Z,54.33
2022-12-23T10:33:22.615Z,56.23
2022-12-23T10:34:54.465Z,54.45
2022-12-23T10:36:22.962Z,56.92
2022-12-23T10:37:35.857Z,56.25
2022-12-23T10:39:00.420Z,55.28
2022-12-23T10:40:26.562Z,54.90
2022-12-23T10:41:49.122Z,54.90
2022-12-23T10:43:30.493Z,61.97
2022-12-23T10:44:39.113Z,51.75
2022-12-23T10:45:56.871Z,49.77
2022-12-23T10:47:34.521Z,55.13
2022-12-23T10:48:58.613Z,49.47
2022-12-23T10:50:38.210Z,51.67
2022-12-23T10:52:24.917Z,49.28
2022-12-23T10:53:55.503Z,50.45
2022-12-23T10:54:58.266Z,49.25
2022-12-23T10:56:02.829Z,50.45
2022-12-23T10:57:07.253Z,50.30
2022-12-23T10:58:18.515Z,82.43
2022-12-23T10:59:26.395Z,57.73
2022-12-23T11:00:30.293Z,76.93
2022-12-23T11:01:34.755Z,55.85
2022-12-23T11:02:58.448Z,50.58
2022-12-23T11:04:09.103Z,49.75
2022-12-23T11:05:22.545Z,48.87
2022-12-23T11:06:33.156Z,46.10
2022-12-23T11:07:45.204Z,47.55
2022-12-23T11:08:50.707Z,46.55
2022-12-23T11:10:03.430Z,49.95
2022-12-23T11:11:07.324Z,48.00
2022-12-23T11:12:11.982Z,49.07
2022-12-23T11:13:45.724Z,47.17
2022-12-23T11:14:57.817Z,45.15
2022-12-23T11:16:13.954Z,46.70
2022-12-23T11:17:25.707Z,47.30
2022-12-23T11:18:37.433Z,48.85
2022-12-23T11:19:43.234Z,46.60
2022-12-23T11:21:02.632Z,45.63
2022-12-23T11:22:05.389Z,47.60
2022-12-23T11:23:29.905Z,49.33
2022-12-23T11:24:38.061Z,51.30
2022-12-23T11:25:45.813Z,48.70
2022-12-23T11:26:58.619Z,51.30
2022-12-23T11:28:10.879Z,50.50
2022-12-23T11:29:23.632Z,50.03
2022-12-23T11:30:28.450Z,47.10
2022-12-23T11:31:35.532Z,49.38
2022-12-23T11:32:39.536Z,47.95
2022-12-23T11:33:52.169Z,46.13
2022-12-23T11:34:56.216Z,48.53
2022-12-23T11:36:07.768Z,48.53
2022-12-23T11:37:24.921Z,44.88
2022-12-23T11:38:27.900Z,46.63
2022-12-23T11:39:36.979Z,46.03
2022-12-23T11:40:50.761Z,46.67
2022-12-23T11:42:09.202Z,44.63
2022-12-23T11:43:15.976Z,43.30
2022-12-23T11:44:22.347Z,44.10
2022-12-23T11:45:29.312Z,41.30
2022-12-23T11:46:35.092Z,45.47
2022-12-23T11:47:41.168Z,56.40
2022-12-23T11:48:54.339Z,47.58
2022-12-23T11:50:03.958Z,44.58
2022-12-23T11:51:07.252Z,46.15
2022-12-23T11:52:17.143Z,44.83
2022-12-23T11:53:23.571Z,40.35
2022-12-23T11:54:26.542Z,53.38
2022-12-23T11:55:34.346Z,44.42
2022-12-23T11:56:40.033Z,43.50
2022-12-23T11:57:49.303Z,47.10
2022-12-23T11:59:18.846Z,40.20
2022-12-23T12:00:26.442Z,42.65
2022-12-23T12:01:29.601Z,48.45
2022-12-23T12:02:45.170Z,45.92
2022-12-23T12:03:54.136Z,54.40
2022-12-23T12:05:05.006Z,43.35
2022-12-23T12:06:16.549Z,53.35
2022-12-23T12:07:27.428Z,63.20
2022-12-23T12:08:37.612Z,44.30
2022-12-23T12:09:43.634Z,62.00
2022-12-23T12:10:46.668Z,50.67
2022-12-23T12:12:04.476Z,48.13
2022-12-23T12:13:28.191Z,49.47
2022-12-23T12:14:51.079Z,46.13
2022-12-23T12:16:21.768Z,57.67
2022-12-23T12:17:45.823Z,50.97
2022-12-23T12:18:56.145Z,68.03
2022-12-23T12:20:10.178Z,43.80
2022-12-23T12:21:21.071Z,50.83
2022-12-23T12:22:30.455Z,67.10
2022-12-23T12:24:17.070Z,59.73
2022-12-23T12:25:23.565Z,82.90
2022-12-23T12:26:29.835Z,92.37
2022-12-23T12:27:37.612Z,77.53
2022-12-23T12:28:44.322Z,59.45
2022-12-23T12:30:12.693Z,54.58
2022-12-23T12:31:33.659Z,82.28
2022-12-23T12:32:58.417Z,73.40
2022-12-23T12:34:20.396Z,63.00
2022-12-23T12:35:38.064Z,86.00
2022-12-23T12:36:53.043Z,91.60
2022-12-23T12:38:16.440Z,68.93
2022-12-23T12:39:41.336Z,109.80
2022-12-23T12:40:56.179Z,101.70
2022-12-23T12:42:29.521Z,92.03
2022-12-23T12:43:35.286Z,45.83
2022-12-23T12:44:43.585Z,149.55
2022-12-23T12:45:58.890Z,116.20
2022-12-23T12:47:52.156Z,50.60
2022-12-23T12:49:10.942Z,48.23
2022-12-23T12:50:29.443Z,50.20
2022-12-23T12:52:25.615Z,48.97
2022-12-23T12:53:33.926Z,46.70
2022-12-23T12:54:47.988Z,47.75
2022-12-23T12:56:00.548Z,59.03
2022-12-23T12:57:04.226Z,51.42
2022-12-23T12:58:18.940Z,63.17
2022-12-23T12:59:29.669Z,46.70
2022-12-23T13:00:51.183Z,55.12
2022-12-23T13:02:15.150Z,49.20
2022-12-23T13:03:28.288Z,51.43
2022-12-23T13:05:03.244Z,51.20
2022-12-23T13:06:27.381Z,49.03
2022-12-23T13:08:05.525Z,56.80
2022-12-23T13:09:36.903Z,54.92
2022-12-23T13:10:49.833Z,49.72
2022-12-23T13:11:52.551Z,63.42
2022-12-23T13:13:28.936Z,58.65
2022-12-23T13:14:34.029Z,46.65
2022-12-23T13:16:14.591Z,47.53
2022-12-23T13:17:22.600Z,43.87
2022-12-23T13:18:35.253Z,45.92
2022-12-23T13:19:54.946Z,49.10
2022-12-23T13:21:25.371Z,47.55
2022-12-23T13:22:32.773Z,48.67
2022-12-23T13:23:44.590Z,48.17
2022-12-23T13:25:06.027Z,49.92
2022-12-23T13:26:20.055Z,49.28
2022-12-23T13:27:26.806Z,51.85
2022-12-23T13:28:41.912Z,50.80
2022-12-23T13:30:20.455Z,49.63
2022-12-23T13:32:07.847Z,46.90
2022-12-23T13:33:50.206Z,52.38
2022-12-23T13:35:15.789Z,50.92
2022-12-23T13:36:29.305Z,46.95
2022-12-23T13:40:28.640Z,49.03
2022-12-23T13:41:50.747Z,65.25
2022-12-23T13:43:02.525Z,54.37
2022-12-23T13:44:11.047Z,52.37
2022-12-23T13:45:23.772Z,61.67
2022-12-23T13:46:41.615Z,56.65
2022-12-23T13:48:13.460Z,53.97
2022-12-23T13:49:37.664Z,53.03
2022-12-23T13:50:43.552Z,51.83
2022-12-23T13:51:55.487Z,66.53
2022-12-23T13:53:33.105Z,63.30
2022-12-23T13:55:02.739Z,75.03
2022-12-23T13:56:27.118Z,60.83
2022-12-23T13:57:44.015Z,46.80
2022-12-23T13:58:50.834Z,49.00
2022-12-23T14:00:23.439Z,51.72
2022-12-23T14:01:53.974Z,50.03
2022-12-23T14:03:00.255Z,50.67
2022-12-23T14:04:29.751Z,55.20
2022-12-23T14:05:35.318Z,50.92
2022-12-23T14:06:40.870Z,49.63
2022-12-23T14:07:45.212Z,54.75
2022-12-23T14:08:56.874Z,53.13
2022-12-23T14:10:12.771Z,53.47
2022-12-23T14:11:27.932Z,52.03
2022-12-23T14:12:37.149Z,52.28
2022-12-23T14:13:46.581Z,50.83
2022-12-23T14:15:31.083Z,54.28
2022-12-23T14:17:07.735Z,65.95
2022-12-23T14:18:36.471Z,63.15
2022-12-23T14:19:42.742Z,60.30
2022-12-23T14:21:23.023Z,59.90
2022-12-23T14:22:37.757Z,54.97
2022-12-23T14:23:40.714Z,53.10
2022-12-23T14:24:51.163Z,56.35
2022-12-23T14:26:15.239Z,57.15
2022-12-23T14:27:46.998Z,56.47
2022-12-23T14:29:23.411Z,58.08
2022-12-23T14:30:42.649Z,60.47
2022-12-23T14:31:58.367Z,59.47
2022-12-23T14:33:15.494Z,61.33
2022-12-23T14:34:19.436Z,53.20
2022-12-23T14:35:40.307Z,60.17
2022-12-23T14:37:25.830Z,60.67
2022-12-23T14:38:32.954Z,55.80
2022-12-23T14:39:36.429Z,58.53
2022-12-23T14:40:39.346Z,61.03
2022-12-23T14:41:53.395Z,54.17
2022-12-23T14:43:22.160Z,55.83
2022-12-23T14:44:37.174Z,69.95
2022-12-23T14:45:43.730Z,61.70
2022-12-23T14:46:46.708Z,46.30
2022-12-23T14:47:51.581Z,45.00
2022-12-23T14:49:29.852Z,45.73
2022-12-23T14:50:43.217Z,44.35
2022-12-23T14:51:50.833Z,44.92
2022-12-23T14:53:03.972Z,46.58
2022-12-23T14:54:08.442Z,48.20
2022-12-23T14:55:32.871Z,45.90
2022-12-23T14:56:42.541Z,46.10
2022-12-23T14:57:46.700Z,46.42
2022-12-23T14:58:56.266Z,45.63
2022-12-23T15:00:16.456Z,43.90
2022-12-23T15:01:33.808Z,44.23
2022-12-23T15:02:44.182Z,42.50
2022-12-23T15:04:01.649Z,44.28
2022-12-23T15:05:18.709Z,47.97
2022-12-23T15:06:39.625Z,42.40
2022-12-23T15:07:44.151Z,40.60
2022-12-23T15:08:51.505Z,41.33
2022-12-23T15:10:00.991Z,41.72